createdAt,value
2023-07-06T00:00:29.220Z,74.52
2023-07-06T00:02:55.613Z,74.72
2023-07-06T00:05:22.253Z,75.27
2023-07-06T00:07:48.620Z,75.87
2023-07-06T00:10:15.187Z,76.91
2023-07-06T00:12:41.561Z,77.26
2023-07-06T00:15:08.077Z,77.56
2023-07-06T00:17:34.792Z,77.39
2023-07-06T00:20:01.219Z,77.64
2023-07-06T00:22:27.594Z,76.93
2023-07-06T00:24:53.954Z,76.17
2023-07-06T00:27:20.300Z,76.28
2023-07-06T00:29:46.766Z,76.51
2023-07-06T00:32:13.193Z,76.59
2023-07-06T00:34:39.533Z,76.60
2023-07-06T00:37:05.889Z,76.14
2023-07-06T00:39:32.237Z,76.14
2023-07-06T00:41:58.601Z,76.37
2023-07-06T00:44:25.041Z,75.95
2023-07-06T00:46:51.554Z,75.93
2023-07-06T00:49:20.301Z,76.15
2023-07-06T00:51:46.891Z,75.75
2023-07-06T00:54:13.283Z,75.74
2023-07-06T00:56:39.660Z,75.46
2023-07-06T00:59:06.222Z,75.59
2023-07-06T01:01:32.603Z,75.79
2023-07-06T01:03:59.000Z,75.66
2023-07-06T01:06:25.399Z,75.60
2023-07-06T01:08:51.861Z,75.69
2023-07-06T01:11:18.266Z,75.07
2023-07-06T01:13:46.875Z,75.15
2023-07-06T01:16:14.494Z,75.39
2023-07-06T01:18:41.054Z,75.27
2023-07-06T01:21:07.423Z,74.78
2023-07-06T01:23:33.906Z,74.77
2023-07-06T01:26:00.298Z,75.23
2023-07-06T01:28:26.984Z,75.38
2023-07-06T01:30:53.916Z,74.89
2023-07-06T01:33:20.322Z,74.59
2023-07-06T01:35:46.841Z,74.89
2023-07-06T01:38:13.226Z,74.62
2023-07-06T01:40:39.704Z,74.78
2023-07-06T01:43:06.103Z,75.26
2023-07-06T01:45:32.478Z,75.61
2023-07-06T01:47:58.921Z,76.93
2023-07-06T01:50:25.335Z,77.11
2023-07-06T01:52:51.681Z,77.05
2023-07-06T01:55:18.065Z,76.52
2023-07-06T01:58:00.210Z,76.45
2023-07-06T02:00:27.636Z,76.49
2023-07-06T02:02:54.427Z,76.66
2023-07-06T02:05:20.824Z,76.08
2023-07-06T02:07:47.296Z,75.88
2023-07-06T02:10:14.086Z,75.52
2023-07-06T02:12:40.725Z,76.01
2023-07-06T02:15:07.125Z,74.87
2023-07-06T02:17:33.523Z,74.54
2023-07-06T02:19:59.976Z,74.65
2023-07-06T02:22:26.422Z,75.14
2023-07-06T02:24:52.774Z,75.78
2023-07-06T02:27:19.145Z,75.32
2023-07-06T02:29:45.609Z,74.75
2023-07-06T02:32:12.190Z,75.66
2023-07-06T02:34:38.640Z,77.02
2023-07-06T02:37:05.268Z,77.38
2023-07-06T02:39:31.650Z,77.54
2023-07-06T02:41:58.163Z,77.60
2023-07-06T02:44:24.528Z,78.17
2023-07-06T02:46:50.967Z,78.57
2023-07-06T02:49:17.436Z,78.44
2023-07-06T02:51:44.332Z,78.94
2023-07-06T02:54:12.837Z,78.86
2023-07-06T02:56:39.214Z,79.01
2023-07-06T02:59:07.889Z,78.97
2023-07-06T03:01:34.503Z,78.95
2023-07-06T03:04:03.698Z,78.95
2023-07-06T03:06:30.094Z,78.78
2023-07-06T03:08:56.551Z,79.25
2023-07-06T03:11:22.983Z,79.40
2023-07-06T03:13:51.007Z,80.33
2023-07-06T03:16:18.815Z,80.25
2023-07-06T03:18:45.445Z,80.08
2023-07-06T03:21:11.838Z,80.12
2023-07-06T03:23:38.244Z,80.19
2023-07-06T03:26:04.618Z,80.38
2023-07-06T03:28:31.031Z,80.63
2023-07-06T03:30:57.404Z,80.41
2023-07-06T03:33:23.796Z,79.81
2023-07-06T03:35:50.245Z,80.08
2023-07-06T03:38:16.621Z,80.38
2023-07-06T03:40:42.968Z,81.47
2023-07-06T03:43:09.402Z,81.03
2023-07-06T03:45:36.557Z,80.35
2023-07-06T03:48:03.085Z,80.87
2023-07-06T03:50:29.543Z,80.43
2023-07-06T03:52:56.319Z,81.17
2023-07-06T03:55:22.730Z,80.62
2023-07-06T03:58:02.848Z,81.03
2023-07-06T04:00:30.658Z,80.45
2023-07-06T04:02:57.277Z,80.68
2023-07-06T04:05:25.125Z,80.67
2023-07-06T04:07:53.731Z,80.46
2023-07-06T04:10:20.152Z,80.28
2023-07-06T04:12:47.340Z,79.52
2023-07-06T04:15:13.741Z,80.00
2023-07-06T04:17:40.782Z,80.24
2023-07-06T04:20:07.190Z,80.25
2023-07-06T04:22:33.669Z,80.34
2023-07-06T04:25:00.173Z,80.30
2023-07-06T04:27:26.520Z,80.11
2023-07-06T04:29:53.071Z,80.38
2023-07-06T04:32:19.564Z,80.12
2023-07-06T04:34:46.012Z,79.27
2023-07-06T04:37:12.567Z,79.66
2023-07-06T04:39:39.325Z,79.58
2023-07-06T04:42:05.690Z,79.66
2023-07-06T04:44:34.314Z,79.49
2023-07-06T04:47:01.622Z,79.16
2023-07-06T04:49:27.965Z,79.16
2023-07-06T04:51:55.340Z,79.07
2023-07-06T04:54:21.715Z,78.56
2023-07-06T04:56:48.107Z,78.41
2023-07-06T04:59:16.762Z,77.72
2023-07-06T05:01:43.217Z,78.53
2023-07-06T05:04:10.489Z,78.30
2023-07-06T05:06:36.989Z,77.65
2023-07-06T05:09:03.368Z,77.44
2023-07-06T05:11:29.770Z,78.01
2023-07-06T05:13:56.195Z,75.95
2023-07-06T05:16:22.640Z,75.78
2023-07-06T05:18:49.028Z,76.22
2023-07-06T05:21:16.149Z,75.32
2023-07-06T05:23:42.651Z,75.74
2023-07-06T05:26:09.019Z,75.43
2023-07-06T05:28:35.367Z,74.86
2023-07-06T05:31:01.797Z,76.26
2023-07-06T05:33:28.216Z,75.26
2023-07-06T05:35:55.201Z,74.19
2023-07-06T05:38:22.175Z,74.91
2023-07-06T05:40:48.751Z,74.27
2023-07-06T05:43:15.155Z,74.35
2023-07-06T05:45:41.561Z,73.48
2023-07-06T05:48:08.193Z,73.35
2023-07-06T05:50:34.578Z,73.23
2023-07-06T05:53:00.951Z,74.54
2023-07-06T05:55:27.559Z,73.07
2023-07-06T05:57:53.997Z,72.63
2023-07-06T06:00:20.339Z,71.54
2023-07-06T06:02:46.895Z,72.45
2023-07-06T06:05:13.370Z,69.95
2023-07-06T06:07:40.010Z,70.52
2023-07-06T06:10:06.394Z,70.44
2023-07-06T06:12:32.761Z,69.87
2023-07-06T06:14:59.554Z,69.56
2023-07-06T06:17:28.542Z,70.77
2023-07-06T06:19:55.246Z,70.82
2023-07-06T06:22:21.622Z,69.50
2023-07-06T06:24:48.128Z,69.67
2023-07-06T06:27:14.665Z,69.06
2023-07-06T06:29:41.062Z,68.96
2023-07-06T06:32:07.524Z,67.38
2023-07-06T06:34:33.950Z,68.57
2023-07-06T06:37:00.565Z,68.82
2023-07-06T06:39:27.012Z,70.36
2023-07-06T06:41:53.551Z,69.94
2023-07-06T06:44:20.201Z,70.29
2023-07-06T06:46:46.775Z,71.79
2023-07-06T06:49:13.400Z,71.71
2023-07-06T06:51:39.786Z,72.03
2023-07-06T06:54:06.164Z,69.97
2023-07-06T06:56:32.629Z,69.69
2023-07-06T06:58:59.012Z,70.62
2023-07-06T07:01:27.912Z,70.68
2023-07-06T07:03:54.460Z,71.14
2023-07-06T07:06:21.032Z,70.41
2023-07-06T07:08:47.713Z,70.60
2023-07-06T07:11:23.098Z,68.59
2023-07-06T07:13:50.754Z,68.55
2023-07-06T07:16:17.520Z,68.92
2023-07-06T07:18:44.011Z,67.85
2023-07-06T07:21:10.365Z,67.92
2023-07-06T07:23:37.088Z,67.32
2023-07-06T07:26:03.513Z,67.72
2023-07-06T07:28:29.885Z,67.11
2023-07-06T07:30:56.277Z,67.48
2023-07-06T07:33:22.688Z,69.35
2023-07-06T07:35:51.315Z,66.94
2023-07-06T07:38:17.673Z,68.13
2023-07-06T07:40:44.087Z,67.01
2023-07-06T07:43:10.428Z,66.74
2023-07-06T07:45:36.809Z,66.62
2023-07-06T07:48:03.262Z,66.22
2023-07-06T07:50:29.724Z,67.39
2023-07-06T07:52:56.072Z,65.67
2023-07-06T07:55:22.447Z,65.72
2023-07-06T07:57:48.831Z,63.06
2023-07-06T08:00:15.213Z,60.53
2023-07-06T08:02:41.670Z,61.16
2023-07-06T08:05:08.108Z,60.59
2023-07-06T08:07:34.749Z,58.66
2023-07-06T08:10:01.136Z,57.93
2023-07-06T08:12:27.605Z,58.19
2023-07-06T08:14:54.022Z,56.99
2023-07-06T08:17:20.764Z,56.04
2023-07-06T08:19:53.081Z,54.24
2023-07-06T08:22:33.631Z,55.94
2023-07-06T08:25:00.241Z,49.58
2023-07-06T08:27:26.581Z,50.10
2023-07-06T08:29:53.020Z,49.30
2023-07-06T08:32:22.204Z,50.86
2023-07-06T08:34:48.767Z,51.77
2023-07-06T08:37:15.256Z,52.26
2023-07-06T08:39:41.599Z,53.38
2023-07-06T08:42:07.932Z,53.83
2023-07-06T08:44:34.286Z,55.53
2023-07-06T08:47:00.819Z,53.16
2023-07-06T08:49:29.896Z,52.75
2023-07-06T08:51:57.151Z,50.92
2023-07-06T08:54:23.526Z,51.31
2023-07-06T08:56:49.959Z,50.62
2023-07-06T08:59:16.295Z,49.90
2023-07-06T09:01:43.090Z,50.09
2023-07-06T09:04:09.704Z,49.29
2023-07-06T09:06:36.053Z,50.70
2023-07-06T09:09:02.419Z,49.22
2023-07-06T09:11:28.757Z,49.36
2023-07-06T09:13:55.255Z,48.78
2023-07-06T09:16:21.836Z,47.11
2023-07-06T09:18:48.392Z,48.09
2023-07-06T09:21:14.999Z,47.02
2023-07-06T09:23:41.397Z,46.27
2023-07-06T09:26:14.217Z,45.90
2023-07-06T09:28:46.909Z,46.92
2023-07-06T09:31:13.320Z,48.18
2023-07-06T09:33:39.707Z,48.16
2023-07-06T09:36:06.369Z,46.45
2023-07-06T09:38:33.766Z,47.72
2023-07-06T09:41:00.207Z,45.01
2023-07-06T09:43:26.616Z,43.41
2023-07-06T09:45:53.057Z,45.25
2023-07-06T09:48:19.921Z,46.99
2023-07-06T09:50:46.496Z,46.41
2023-07-06T09:53:12.954Z,48.21
2023-07-06T09:55:39.446Z,49.83
2023-07-06T09:58:08.078Z,48.14
2023-07-06T10:00:34.582Z,50.15
2023-07-06T10:03:01.076Z,48.41
2023-07-06T10:05:27.797Z,48.05
2023-07-06T10:07:54.177Z,49.75
2023-07-06T10:10:20.903Z,48.79
2023-07-06T10:12:52.949Z,48.31
2023-07-06T10:15:19.342Z,47.59
2023-07-06T10:20:27.859Z,44.01
2023-07-06T10:22:54.259Z,45.76
2023-07-06T10:25:20.781Z,44.29
2023-07-06T10:27:53.794Z,46.55
2023-07-06T10:30:20.514Z,48.51
2023-07-06T10:38:09.645Z,47.52
2023-07-06T10:40:36.044Z,45.88
2023-07-06T10:43:02.437Z,44.84
2023-07-06T10:45:29.054Z,44.78
2023-07-06T10:47:55.529Z,45.90
2023-07-06T10:50:21.915Z,46.19
2023-07-06T10:52:48.260Z,43.88
2023-07-06T11:03:07.939Z,45.82
2023-07-06T11:05:37.127Z,44.45
2023-07-06T11:08:05.123Z,45.93
2023-07-06T11:10:31.509Z,45.63
2023-07-06T11:12:57.972Z,45.71
2023-07-06T11:15:24.691Z,47.68
2023-07-06T11:17:51.249Z,47.20
2023-07-06T11:20:17.644Z,48.15
2023-07-06T11:22:44.249Z,46.09
2023-07-06T11:25:10.625Z,46.42
2023-07-06T11:27:37.098Z,46.05
2023-07-06T11:30:03.485Z,46.08
2023-07-06T11:32:29.903Z,45.91
2023-07-06T11:34:56.303Z,48.32
2023-07-06T11:37:23.692Z,46.88
2023-07-06T11:39:50.131Z,47.35
2023-07-06T11:42:16.614Z,46.85
2023-07-06T11:44:42.991Z,46.02
2023-07-06T11:47:09.435Z,46.45
2023-07-06T11:49:35.966Z,44.28
2023-07-06T11:52:02.328Z,43.76
2023-07-06T11:54:28.673Z,45.83
2023-07-06T11:56:55.199Z,44.00
2023-07-06T11:59:21.616Z,40.46
2023-07-06T12:01:48.072Z,42.00
2023-07-06T12:04:14.472Z,41.71
2023-07-06T12:06:40.912Z,41.93
2023-07-06T12:09:07.302Z,41.72
2023-07-06T12:11:33.846Z,43.66
2023-07-06T12:14:00.288Z,40.94
2023-07-06T12:16:26.803Z,41.26
2023-07-06T12:18:53.639Z,41.97
2023-07-06T12:21:20.017Z,42.40
2023-07-06T12:23:46.406Z,42.90
2023-07-06T12:26:12.912Z,43.16
2023-07-06T12:28:39.383Z,43.38
2023-07-06T12:31:05.880Z,44.32
2023-07-06T12:33:32.359Z,43.22
2023-07-06T12:35:59.183Z,42.97
2023-07-06T12:38:25.824Z,44.25
2023-07-06T12:40:52.293Z,42.34
2023-07-06T12:43:18.676Z,41.21
2023-07-06T12:45:45.148Z,40.86
2023-07-06T12:48:11.607Z,40.48
2023-07-06T12:50:38.456Z,41.92
2023-07-06T12:53:04.801Z,40.39
2023-07-06T12:55:31.146Z,42.17
2023-07-06T12:57:57.497Z,38.91
2023-07-06T13:00:23.885Z,37.05
2023-07-06T13:02:51.454Z,36.14
2023-07-06T13:05:18.061Z,37.25
2023-07-06T13:07:46.798Z,37.76
2023-07-06T13:10:13.145Z,38.51
2023-07-06T13:12:39.483Z,40.79
2023-07-06T13:15:06.199Z,39.94
2023-07-06T13:17:32.704Z,37.73
2023-07-06T13:19:59.218Z,38.20
2023-07-06T13:22:25.624Z,39.73
2023-07-06T13:24:53.359Z,41.29
2023-07-06T13:27:19.736Z,40.37
2023-07-06T13:29:46.184Z,39.24
2023-07-06T13:32:12.585Z,41.92
2023-07-06T13:34:39.025Z,41.00
2023-07-06T13:37:05.506Z,39.85
2023-07-06T13:39:31.884Z,40.66
2023-07-06T13:41:58.345Z,40.79
2023-07-06T13:44:24.694Z,40.19
2023-07-06T13:46:51.083Z,38.66
2023-07-06T13:49:17.638Z,40.03
2023-07-06T13:51:44.140Z,41.91
2023-07-06T13:54:10.535Z,40.99
2023-07-06T13:56:36.904Z,39.32
2023-07-06T13:59:03.257Z,39.85
2023-07-06T14:01:29.617Z,41.01
2023-07-06T14:03:56.133Z,40.49
2023-07-06T14:06:22.659Z,39.86
2023-07-06T14:08:49.372Z,40.26
2023-07-06T14:11:15.766Z,39.05
2023-07-06T14:13:45.314Z,40.08
2023-07-06T14:16:12.677Z,40.08
2023-07-06T14:18:39.147Z,38.28
2023-07-06T14:21:05.529Z,40.28
2023-07-06T14:23:32.349Z,40.36
2023-07-06T14:25:58.989Z,36.90
2023-07-06T14:28:25.575Z,38.81
2023-07-06T14:30:51.989Z,38.38
2023-07-06T14:33:18.333Z,37.93
2023-07-06T14:35:47.999Z,36.16
2023-07-06T14:38:15.595Z,36.73
2023-07-06T14:40:43.033Z,37.94
2023-07-06T14:43:09.695Z,36.66
2023-07-06T14:45:36.060Z,35.17
2023-07-06T14:48:05.805Z,38.61
2023-07-06T14:50:32.195Z,38.41
2023-07-06T14:53:00.907Z,39.38
2023-07-06T14:55:27.301Z,38.90
2023-07-06T14:57:54.737Z,39.27
2023-07-06T15:00:21.147Z,39.39
2023-07-06T15:02:49.841Z,39.09
2023-07-06T15:05:16.352Z,37.13
2023-07-06T15:07:44.978Z,37.00
2023-07-06T15:10:11.682Z,37.03
2023-07-06T15:12:38.374Z,36.53
2023-07-06T15:15:04.729Z,36.80
2023-07-06T15:17:31.488Z,35.81
2023-07-06T15:19:58.029Z,36.84
2023-07-06T15:22:24.426Z,36.69
2023-07-06T15:24:55.240Z,37.45
2023-07-06T15:27:22.354Z,38.46
2023-07-06T15:29:49.246Z,36.18
2023-07-06T15:32:15.983Z,37.18
2023-07-06T15:34:55.916Z,35.74
2023-07-06T15:37:26.126Z,37.92
2023-07-06T15:39:52.532Z,35.60
2023-07-06T16:17:12.113Z,37.21
2023-07-06T16:19:38.548Z,37.83
2023-07-06T16:22:04.921Z,36.27
2023-07-06T16:24:31.266Z,36.83
2023-07-06T16:27:01.724Z,37.33
2023-07-06T16:29:28.360Z,36.45
2023-07-06T16:31:54.730Z,37.07
2023-07-06T16:34:21.124Z,37.32
2023-07-06T16:36:47.501Z,38.68
2023-07-06T16:39:13.849Z,37.21
2023-07-06T16:41:40.224Z,37.82
2023-07-06T16:44:06.718Z,38.25
2023-07-06T16:46:33.163Z,37.67
2023-07-06T16:48:59.631Z,38.17
2023-07-06T16:51:26.015Z,37.52
2023-07-06T16:53:53.406Z,37.88
2023-07-06T16:56:21.832Z,36.36
2023-07-06T16:58:48.575Z,36.22
2023-07-06T17:01:15.287Z,36.11
2023-07-06T17:03:42.000Z,36.46
2023-07-06T17:06:08.434Z,35.58
2023-07-06T17:08:34.861Z,36.31
2023-07-06T17:11:01.365Z,35.81
2023-07-06T17:13:27.945Z,35.46
2023-07-06T17:15:54.607Z,36.39
2023-07-06T17:18:22.257Z,34.67
2023-07-06T17:20:50.688Z,35.10
2023-07-06T17:23:22.274Z,35.85
2023-07-06T17:25:48.634Z,37.16
2023-07-06T17:28:15.223Z,36.22
2023-07-06T17:30:42.578Z,34.92
2023-07-06T17:33:08.943Z,35.95
2023-07-06T17:35:36.463Z,36.57
2023-07-06T17:38:03.780Z,35.51
2023-07-06T17:48:36.261Z,36.32
2023-07-06T17:51:04.723Z,34.71
2023-07-06T17:53:31.099Z,34.88
2023-07-06T17:55:57.788Z,34.66
2023-07-06T17:58:24.367Z,34.80
2023-07-06T18:00:50.754Z,36.35
2023-07-06T18:03:17.607Z,35.21
2023-07-06T18:05:44.309Z,35.20
2023-07-06T18:08:12.921Z,34.86
2023-07-06T18:10:39.261Z,35.63
2023-07-06T18:13:05.640Z,35.90
2023-07-06T18:15:32.034Z,37.08
2023-07-06T18:18:00.677Z,36.63
2023-07-06T18:20:35.174Z,37.08
2023-07-06T18:23:01.653Z,37.10
2023-07-06T18:25:28.311Z,36.68
2023-07-06T18:27:56.974Z,38.05
2023-07-06T18:30:25.537Z,37.84
2023-07-06T18:32:52.067Z,38.37
2023-07-06T18:35:18.554Z,38.96
2023-07-06T18:37:44.892Z,37.48
2023-07-06T18:40:11.264Z,41.92
2023-07-06T18:42:37.648Z,40.14
2023-07-06T18:45:06.124Z,42.72
2023-07-06T18:47:33.013Z,43.22
2023-07-06T18:49:59.530Z,44.08
2023-07-06T18:52:33.119Z,43.88
2023-07-06T18:55:02.054Z,43.47
2023-07-06T18:57:30.772Z,43.66
2023-07-06T19:08:05.173Z,46.45
2023-07-06T19:10:31.569Z,47.20
2023-07-06T19:12:57.961Z,47.73
2023-07-06T19:15:24.820Z,49.07
2023-07-06T19:17:51.212Z,49.40
2023-07-06T19:20:17.635Z,49.80
2023-07-06T19:22:45.100Z,50.23
2023-07-06T19:25:11.575Z,49.55
2023-07-06T19:27:37.965Z,49.80
2023-07-06T19:30:04.332Z,50.28
2023-07-06T19:32:30.724Z,51.71
2023-07-06T19:34:57.162Z,51.99
2023-07-06T19:37:23.534Z,52.62
2023-07-06T19:39:49.930Z,53.03
2023-07-06T19:42:16.294Z,52.67
2023-07-06T19:44:42.649Z,52.63
2023-07-06T19:47:09.074Z,54.53
2023-07-06T19:49:35.522Z,54.82
2023-07-06T19:52:01.875Z,55.30
2023-07-06T19:54:28.243Z,55.41
2023-07-06T19:56:56.822Z,55.14
2023-07-06T19:59:24.064Z,55.78
2023-07-06T20:01:50.596Z,55.93
2023-07-06T20:04:17.241Z,55.67
2023-07-06T20:06:43.976Z,56.27
2023-07-06T20:09:12.428Z,56.50
2023-07-06T20:11:38.806Z,55.78
2023-07-06T20:14:05.342Z,57.16
2023-07-06T20:16:32.411Z,56.33
2023-07-06T20:18:59.204Z,56.53
2023-07-06T20:21:25.583Z,56.15
2023-07-06T20:23:51.968Z,56.34
2023-07-06T20:26:18.310Z,55.67
2023-07-06T20:28:44.709Z,56.25
2023-07-06T20:31:11.091Z,55.76
2023-07-06T20:33:37.488Z,55.94
2023-07-06T20:36:03.896Z,55.92
2023-07-06T20:38:30.282Z,55.26
2023-07-06T20:40:57.370Z,55.98
2023-07-06T20:43:23.981Z,56.78
2023-07-06T20:45:50.370Z,56.66
2023-07-06T20:48:16.727Z,55.98
2023-07-06T20:50:43.133Z,57.30
2023-07-06T20:53:09.516Z,59.51
2023-07-06T20:55:35.868Z,59.97
2023-07-06T20:58:02.210Z,61.20
2023-07-06T21:00:28.638Z,62.89
2023-07-06T21:02:55.077Z,61.92
2023-07-06T21:05:21.438Z,61.68
2023-07-06T21:07:47.805Z,62.14
2023-07-06T21:10:14.184Z,62.72
2023-07-06T21:12:40.573Z,62.57
2023-07-06T21:15:06.956Z,62.51
2023-07-06T21:17:33.355Z,62.04
2023-07-06T21:19:59.724Z,61.83
2023-07-06T21:22:26.102Z,62.19
2023-07-06T21:24:52.478Z,62.14
2023-07-06T21:27:18.862Z,61.91
2023-07-06T21:29:45.217Z,60.52
2023-07-06T21:32:11.791Z,60.62
2023-07-06T21:34:38.284Z,59.59
2023-07-06T21:37:04.676Z,59.99
2023-07-06T21:39:31.092Z,59.88
2023-07-06T21:41:57.460Z,60.48
2023-07-06T21:44:23.861Z,61.40
2023-07-06T21:46:50.252Z,61.98
2023-07-06T21:49:16.635Z,62.60
2023-07-06T21:51:43.219Z,63.32
2023-07-06T21:54:09.591Z,63.62
2023-07-06T21:56:35.926Z,64.22
2023-07-06T21:59:02.322Z,63.84
2023-07-06T22:01:28.763Z,63.95
2023-07-06T22:03:55.187Z,65.02
2023-07-06T22:06:21.634Z,65.36
2023-07-06T22:08:48.034Z,66.57
2023-07-06T22:11:14.394Z,67.88
2023-07-06T22:13:40.809Z,67.42
2023-07-06T22:16:07.282Z,68.02
2023-07-06T22:18:33.715Z,66.84
2023-07-06T22:21:00.336Z,67.32
2023-07-06T22:23:26.854Z,67.34
2023-07-06T22:25:53.247Z,67.76
2023-07-06T22:28:19.623Z,67.09
2023-07-06T22:30:46.057Z,67.88
2023-07-06T22:33:12.410Z,67.18
2023-07-06T22:35:38.789Z,68.15
2023-07-06T22:38:05.146Z,68.57
2023-07-06T22:40:31.497Z,68.54
2023-07-06T22:42:57.877Z,69.73
2023-07-06T22:45:24.269Z,70.24
2023-07-06T22:47:50.674Z,69.82
2023-07-06T22:50:17.088Z,67.93
2023-07-06T22:52:43.444Z,68.65
2023-07-06T22:55:09.820Z,68.49
2023-07-06T22:57:36.185Z,66.91
2023-07-06T23:00:02.558Z,66.48
2023-07-06T23:02:29.075Z,66.42
2023-07-06T23:04:55.521Z,66.38
2023-07-06T23:07:21.865Z,66.71
2023-07-06T23:09:48.217Z,66.32
2023-07-06T23:12:14.575Z,66.86
2023-07-06T23:14:40.918Z,66.02
2023-07-06T23:17:07.556Z,65.63
2023-07-06T23:19:34.009Z,66.10
2023-07-06T23:22:00.407Z,66.00
2023-07-06T23:24:26.783Z,67.16
2023-07-06T23:26:53.157Z,66.63
2023-07-06T23:29:19.559Z,67.47
2023-07-06T23:31:46.845Z,69.12
2023-07-06T23:34:13.706Z,69.23
2023-07-06T23:36:40.084Z,68.10
2023-07-06T23:39:06.489Z,69.40
2023-07-06T23:41:32.865Z,70.14
2023-07-06T23:43:59.233Z,71.30
2023-07-06T23:46:25.628Z,71.45
2023-07-06T23:48:52.057Z,71.65
2023-07-06T23:51:18.442Z,71.64
2023-07-06T23:53:44.828Z,71.65
2023-07-06T23:56:11.209Z,71.88
2023-07-06T23:58:37.590Z,71.99
